Time;durP1;ratioP1;P1;durP2;ratioP2;P2;SDS_P1;SDS_P2;PMS_P1;PMS_P2;Temp;Humidity;BMP_temperature;BMP_pressure;BME280_temperature;BME280_humidity;BME280_pressure;Samples;Min_cycle;Max_cycle;Signal;HPM_P1;HPM_P2
2024/01/24 00:02:05;;;;;;;30.10;19.95;;;7.40;84.30;;;;;;4960180;28;20171;-80
2024/01/24 00:04:31;;;;;;;30.15;21.23;;;7.40;84.50;;;;;;4962344;28;20054;-80
2024/01/24 00:06:57;;;;;;;31.13;20.65;;;7.50;84.40;;;;;;4973720;28;20063;-80
2024/01/24 00:09:23;;;;;;;32.60;20.15;;;7.40;84.50;;;;;;4960309;28;20396;-80
2024/01/24 00:11:48;;;;;;;29.10;20.30;;;7.40;84.80;;;;;;4966716;28;20031;-80
2024/01/24 00:14:14;;;;;;;33.40;20.67;;;7.40;85.00;;;;;;4969045;28;20042;-80
2024/01/24 00:16:40;;;;;;;33.13;22.35;;;7.40;85.10;;;;;;4971313;28;20053;-80
2024/01/24 00:19:06;;;;;;;37.58;24.90;;;7.30;85.10;;;;;;4958240;28;20023;-80
2024/01/24 00:21:31;;;;;;;35.22;24.88;;;7.30;85.10;;;;;;4971461;28;20038;-80
2024/01/24 00:23:57;;;;;;;36.35;24.25;;;7.30;85.00;;;;;;4948217;28;20105;-80
2024/01/24 00:26:23;;;;;;;33.33;23.85;;;7.30;85.10;;;;;;4974083;28;20457;-80
2024/01/24 00:28:48;;;;;;;38.65;25.00;;;7.30;85.20;;;;;;4960490;28;20039;-80
2024/01/24 00:31:14;;;;;;;39.45;25.52;;;7.20;85.30;;;;;;4958273;28;20063;-79
2024/01/24 00:33:40;;;;;;;37.67;27.00;;;7.20;85.40;;;;;;4964466;28;20154;-79
2024/01/24 00:36:05;;;;;;;39.25;26.60;;;7.20;85.50;;;;;;4957379;28;20031;-80
2024/01/24 00:38:31;;;;;;;43.28;28.20;;;7.10;85.30;;;;;;4971572;28;20030;-79
2024/01/24 00:40:57;;;;;;;40.75;26.88;;;7.10;85.30;;;;;;4959013;28;20034;-79
2024/01/24 00:43:23;;;;;;;40.72;27.08;;;7.10;85.30;;;;;;4956781;28;20039;-80
2024/01/24 00:45:49;;;;;;;47.45;29.92;;;7.00;85.20;;;;;;4967602;28;20405;-80
2024/01/24 00:48:14;;;;;;;39.90;27.95;;;6.90;85.80;;;;;;4964744;28;20057;-80
2024/01/24 00:50:40;;;;;;;45.88;30.08;;;6.80;85.50;;;;;;4966415;28;20092;-81
2024/01/24 00:53:06;;;;;;;40.75;28.83;;;6.80;85.80;;;;;;4971455;28;20485;-80
2024/01/24 00:55:32;;;;;;;44.58;29.15;;;6.80;85.90;;;;;;4972284;28;20373;-80
2024/01/24 00:57:58;;;;;;;46.63;30.63;;;6.80;85.70;;;;;;4965699;28;20038;-80
2024/01/24 01:00:24;;;;;;;43.83;31.23;;;6.80;85.60;;;;;;4969031;28;20458;-80
2024/01/24 01:02:50;;;;;;;43.35;30.10;;;6.70;85.60;;;;;;4974697;28;20031;-80
2024/01/24 01:05:16;;;;;;;43.30;30.42;;;6.70;85.80;;;;;;4971478;28;20106;-80
2024/01/24 01:07:41;;;;;;;42.47;29.80;;;6.70;86.10;;;;;;4972043;28;20119;-80
2024/01/24 01:10:08;;;;;;;43.90;30.55;;;6.70;86.20;;;;;;4967662;28;20023;-80
2024/01/24 01:12:34;;;;;;;43.00;29.70;;;6.70;86.10;;;;;;4972929;28;20035;-80
2024/01/24 01:15:00;;;;;;;48.22;31.52;;;6.70;86.10;;;;;;4969474;28;20090;-80
2024/01/24 01:17:26;;;;;;;48.58;32.10;;;6.70;86.20;;;;;;4957143;28;20039;-80
2024/01/24 01:19:51;;;;;;;49.10;32.33;;;6.70;86.00;;;;;;4963604;28;20074;-80
2024/01/24 01:22:18;;;;;;;48.38;31.13;;;6.70;85.80;;;;;;4958606;28;20039;-80
2024/01/24 01:24:43;;;;;;;47.40;31.55;;;6.70;85.90;;;;;;4957342;28;20466;-80
2024/01/24 01:27:09;;;;;;;47.08;31.17;;;6.60;86.20;;;;;;4971737;28;20031;-80
2024/01/24 01:29:35;;;;;;;43.70;30.08;;;6.60;86.30;;;;;;4961834;28;20039;-80
2024/01/24 01:32:00;;;;;;;49.72;31.42;;;6.60;86.30;;;;;;4953298;28;20512;-81
2024/01/24 01:34:26;;;;;;;46.75;31.20;;;6.60;86.50;;;;;;4970208;28;20376;-80
2024/01/24 01:36:52;;;;;;;47.92;31.33;;;6.60;86.50;;;;;;4956370;28;20450;-80
2024/01/24 01:39:18;;;;;;;46.38;30.80;;;6.60;86.30;;;;;;4971172;28;20094;-80
2024/01/24 01:41:48;;;;;;;46.60;31.33;;;6.60;86.30;;;;;;4972699;28;20027;-81
2024/01/24 01:44:15;;;;;;;45.90;30.85;;;6.60;86.60;;;;;;4971421;28;20034;-79
2024/01/24 01:46:41;;;;;;;45.47;29.92;;;6.60;86.40;;;;;;4959042;28;20039;-80
2024/01/24 01:49:07;;;;;;;42.70;29.60;;;6.60;86.40;;;;;;4967401;28;20244;-80
2024/01/24 01:51:33;;;;;;;39.17;26.83;;;6.60;86.40;;;;;;4958934;28;20071;-80
2024/01/24 01:54:00;;;;;;;50.22;31.85;;;6.50;86.60;;;;;;4964859;28;20474;-81
2024/01/24 01:56:26;;;;;;;46.28;31.33;;;6.40;86.80;;;;;;4968055;28;20046;-81
2024/01/24 01:58:52;;;;;;;45.03;31.00;;;6.50;87.10;;;;;;4973677;28;20035;-80
2024/01/24 02:01:19;;;;;;;49.40;32.65;;;6.50;87.30;;;;;;4969530;28;20053;-81
2024/01/24 02:03:45;;;;;;;43.15;30.83;;;6.50;87.20;;;;;;4967716;28;20037;-81
2024/01/24 02:06:12;;;;;;;44.78;30.02;;;6.50;86.90;;;;;;4955567;28;20051;-80
2024/01/24 02:08:39;;;;;;;42.97;30.38;;;6.50;86.60;;;;;;4960391;28;20039;-80
2024/01/24 02:11:06;;;;;;;45.92;30.92;;;6.50;86.60;;;;;;4960742;28;20031;-80
2024/01/24 02:13:32;;;;;;;46.97;31.23;;;6.50;86.50;;;;;;4960996;28;20037;-80
2024/01/24 02:16:04;;;;;;;43.80;29.92;;;6.40;86.40;;;;;;4958436;28;20102;-81
2024/01/24 02:18:30;;;;;;;38.83;28.23;;;6.40;86.40;;;;;;4955464;28;20106;-81
2024/01/24 02:20:56;;;;;;;47.13;31.88;;;6.30;86.30;;;;;;4946026;28;20118;-81
2024/01/24 02:23:26;;;;;;;47.78;33.03;;;6.30;86.40;;;;;;4956096;28;20035;-81
2024/01/24 02:25:52;;;;;;;;;;;6.20;86.30;;;;;;4946340;29;20058;-81
2024/01/24 02:28:19;;;;;;;46.35;31.52;;;6.20;86.30;;;;;;4966750;28;20395;-80
2024/01/24 02:30:45;;;;;;;46.10;30.45;;;6.20;86.30;;;;;;4959755;28;20046;-80
2024/01/24 02:33:12;;;;;;;47.05;32.00;;;6.10;86.10;;;;;;4958469;28;20049;-80
2024/01/24 02:35:38;;;;;;;41.72;26.25;;;6.10;86.20;;;;;;4957115;28;20023;-81
2024/01/24 02:38:03;;;;;;;44.70;29.65;;;6.10;86.10;;;;;;4964170;28;20046;-80
2024/01/24 02:40:29;;;;;;;44.22;30.73;;;6.00;86.40;;;;;;4967759;28;20037;-80
2024/01/24 02:42:55;;;;;;;46.40;30.13;;;6.00;86.40;;;;;;4975375;28;20031;-80
2024/01/24 02:45:21;;;;;;;46.50;30.83;;;6.10;86.30;;;;;;4962792;28;20102;-81
2024/01/24 02:47:46;;;;;;;46.88;31.13;;;6.10;86.20;;;;;;4968968;28;20038;-81
2024/01/24 02:50:12;;;;;;;44.75;31.02;;;6.00;86.30;;;;;;4962129;28;20035;-81
2024/01/24 02:52:39;;;;;;;43.58;28.73;;;6.00;86.50;;;;;;4964255;28;20477;-81
2024/01/24 02:55:06;;;;;;;44.17;28.55;;;5.90;85.90;;;;;;4967955;28;20110;-81
2024/01/24 02:57:32;;;;;;;47.90;29.70;;;5.90;86.00;;;;;;4978178;28;20035;-81
2024/01/24 02:59:57;;;;;;;47.80;31.60;;;5.90;85.90;;;;;;4953295;28;20031;-81
2024/01/24 03:02:23;;;;;;;47.78;31.17;;;5.80;85.90;;;;;;4962239;28;20063;-81
2024/01/24 03:04:48;;;;;;;45.08;30.63;;;5.80;85.90;;;;;;4961826;28;20488;-81
2024/01/24 03:07:14;;;;;;;45.83;30.73;;;5.80;85.90;;;;;;4968274;28;20393;-81
2024/01/24 03:09:40;;;;;;;48.92;31.92;;;5.80;85.70;;;;;;4961421;28;20031;-80
2024/01/24 03:12:06;;;;;;;44.72;29.58;;;5.80;85.70;;;;;;4963545;28;20443;-80
2024/01/24 03:14:31;;;;;;;44.65;29.90;;;5.80;85.80;;;;;;4960731;28;20417;-80
2024/01/24 03:16:57;;;;;;;46.55;30.02;;;5.80;85.50;;;;;;4974505;28;20436;-81
2024/01/24 03:19:23;;;;;;;45.45;28.77;;;5.80;85.30;;;;;;4960914;28;20027;-80
2024/01/24 03:21:49;;;;;;;43.45;28.33;;;5.80;84.90;;;;;;4963189;28;20035;-81
2024/01/24 03:24:15;;;;;;;48.22;28.88;;;5.80;84.90;;;;;;4960453;28;20047;-80
2024/01/24 03:26:40;;;;;;;45.95;29.38;;;5.80;84.90;;;;;;4970310;28;20039;-81
2024/01/24 03:29:06;;;;;;;50.70;32.03;;;5.80;84.90;;;;;;4965644;28;20090;-80
2024/01/24 03:31:32;;;;;;;44.90;28.75;;;5.70;84.90;;;;;;4968601;28;20478;-80
2024/01/24 03:33:58;;;;;;;44.00;28.83;;;5.70;84.90;;;;;;4974435;28;20038;-81
2024/01/24 03:36:23;;;;;;;45.90;30.45;;;5.70;85.20;;;;;;4967687;28;20378;-81
2024/01/24 03:38:49;;;;;;;37.28;25.70;;;5.60;85.40;;;;;;4976628;28;20393;-81
2024/01/24 03:41:15;;;;;;;45.38;27.50;;;5.60;85.20;;;;;;4964752;28;20054;-81
2024/01/24 03:43:41;;;;;;;36.75;24.52;;;5.60;85.20;;;;;;4979405;28;20115;-81
2024/01/24 03:46:07;;;;;;;35.72;23.95;;;5.60;85.30;;;;;;4971070;28;20031;-80
2024/01/24 03:48:32;;;;;;;35.70;23.60;;;5.50;85.40;;;;;;4957046;28;20556;-81
2024/01/24 03:50:58;;;;;;;39.92;27.20;;;5.50;85.60;;;;;;4969475;28;20115;-81
2024/01/24 03:53:24;;;;;;;41.72;26.88;;;5.50;85.70;;;;;;4962106;28;20133;-81
2024/01/24 03:55:50;;;;;;;43.55;26.83;;;5.50;85.60;;;;;;4969434;28;20035;-81
2024/01/24 03:58:16;;;;;;;39.83;27.65;;;5.50;85.80;;;;;;4955323;29;20485;-81
2024/01/24 04:00:42;;;;;;;32.78;22.20;;;5.30;86.10;;;;;;4952997;29;20034;-80
2024/01/24 04:03:07;;;;;;;42.70;26.67;;;5.20;86.60;;;;;;4975486;28;20039;-81
2024/01/24 04:05:33;;;;;;;40.65;27.08;;;5.20;86.40;;;;;;4971897;28;20082;-80
2024/01/24 04:07:59;;;;;;;44.38;27.17;;;5.30;86.50;;;;;;4963614;28;20047;-80
2024/01/24 04:10:25;;;;;;;40.55;28.63;;;5.30;86.70;;;;;;4968467;28;20073;-80
2024/01/24 04:12:50;;;;;;;38.00;23.92;;;5.40;86.70;;;;;;4961709;28;20038;-80
2024/01/24 04:15:16;;;;;;;41.55;26.35;;;5.40;86.20;;;;;;4969771;28;20055;-80
2024/01/24 04:17:42;;;;;;;39.83;26.20;;;5.50;86.30;;;;;;4947300;28;20027;-80
2024/01/24 04:20:08;;;;;;;40.88;25.45;;;5.50;86.30;;;;;;4959914;28;20457;-81
2024/01/24 04:22:35;;;;;;;35.63;24.00;;;5.50;86.10;;;;;;4971919;28;20035;-81
2024/01/24 04:25:00;;;;;;;35.67;23.65;;;5.60;86.10;;;;;;4975420;28;20470;-80
2024/01/24 04:27:27;;;;;;;33.55;22.50;;;5.50;86.00;;;;;;4962564;28;20102;-80
2024/01/24 04:29:53;;;;;;;37.42;23.52;;;5.50;86.10;;;;;;4965377;28;20027;-81
2024/01/24 04:32:19;;;;;;;39.20;25.67;;;5.50;86.20;;;;;;4957803;28;20079;-81
2024/01/24 04:34:45;;;;;;;39.42;24.98;;;5.50;86.40;;;;;;4957030;28;20046;-80
2024/01/24 04:37:11;;;;;;;40.53;24.38;;;5.60;86.50;;;;;;4972410;28;20027;-81
2024/01/24 04:39:37;;;;;;;34.05;23.75;;;5.60;86.40;;;;;;4957170;28;20027;-81
2024/01/24 04:42:03;;;;;;;37.78;23.88;;;5.60;86.30;;;;;;4966583;28;20058;-81
2024/01/24 04:44:30;;;;;;;35.28;24.13;;;5.60;86.40;;;;;;4974598;28;20027;-81
2024/01/24 04:46:56;;;;;;;35.47;24.08;;;5.70;86.50;;;;;;4973404;28;20485;-81
2024/01/24 04:49:21;;;;;;;36.83;23.70;;;5.70;86.50;;;;;;4961995;28;20078;-81
2024/01/24 04:51:48;;;;;;;34.33;23.98;;;5.70;86.50;;;;;;4964537;28;20051;-81
2024/01/24 04:54:15;;;;;;;36.83;23.50;;;5.80;86.60;;;;;;4956779;28;20504;-81
2024/01/24 04:56:47;;;;;;;37.28;24.27;;;5.80;86.60;;;;;;4969934;28;20372;-81
2024/01/24 04:59:13;;;;;;;35.92;24.25;;;5.80;86.50;;;;;;4974908;28;20042;-81
2024/01/24 05:01:40;;;;;;;36.47;24.45;;;5.80;86.40;;;;;;4973052;28;20026;-81
2024/01/24 05:04:05;;;;;;;37.08;24.10;;;5.80;86.60;;;;;;4947617;29;20027;-81
2024/01/24 05:06:31;;;;;;;32.55;22.50;;;5.90;86.70;;;;;;4966876;28;20066;-81
2024/01/24 05:08:57;;;;;;;35.65;23.48;;;5.90;86.90;;;;;;4960685;28;20035;-82
2024/01/24 05:11:22;;;;;;;34.67;22.42;;;5.90;86.90;;;;;;4968601;28;20525;-82
2024/01/24 05:13:48;;;;;;;31.73;21.75;;;5.90;86.90;;;;;;4968104;28;20035;-81
2024/01/24 05:16:15;;;;;;;38.20;23.50;;;5.90;86.90;;;;;;4962408;28;20106;-81
2024/01/24 05:18:41;;;;;;;36.55;22.88;;;5.90;87.10;;;;;;4959097;28;20050;-81
2024/01/24 05:21:07;;;;;;;35.22;23.50;;;5.90;87.10;;;;;;4970199;28;20458;-79
2024/01/24 05:23:46;;;;;;;33.55;22.10;;;5.90;87.20;;;;;;4950170;28;20520;-80
2024/01/24 05:26:12;;;;;;;33.75;22.23;;;5.90;87.20;;;;;;4948345;28;20050;-81
2024/01/24 05:28:40;;;;;;;32.33;22.45;;;6.00;87.40;;;;;;4968528;28;20027;-81
2024/01/24 05:31:06;;;;;;;31.98;20.95;;;6.00;87.60;;;;;;4962213;28;20553;-81
2024/01/24 05:33:33;;;;;;;30.52;20.85;;;6.00;87.50;;;;;;4959630;28;20043;-81
2024/01/24 05:36:25;;;;;;;31.23;20.63;;;6.00;87.60;;;;;;4948125;28;20114;-80
2024/01/24 05:38:54;;;;;;;27.38;20.33;;;6.00;88.10;;;;;;4946823;28;20338;-81
2024/01/24 05:41:20;;;;;;;30.30;20.20;;;6.00;88.00;;;;;;4969646;28;20020;-81
2024/01/24 05:43:46;;;;;;;30.27;20.38;;;6.00;87.90;;;;;;4969385;28;20033;-81
2024/01/24 05:46:11;;;;;;;32.10;21.25;;;6.00;87.90;;;;;;4968762;28;20123;-83
2024/01/24 05:48:40;;;;;;;30.70;20.85;;;6.00;87.90;;;;;;4974468;28;20034;-83
2024/01/24 05:51:06;;;;;;;25.92;18.85;;;6.00;87.80;;;;;;4973147;28;20037;-83
2024/01/24 05:53:33;;;;;;;33.35;21.38;;;6.00;88.10;;;;;;4949770;29;20434;-82
2024/01/24 05:55:58;;;;;;;31.20;21.08;;;6.00;88.20;;;;;;4965139;28;20106;-82
2024/01/24 05:58:24;;;;;;;29.95;21.00;;;6.00;88.30;;;;;;4963747;28;20110;-83
2024/01/24 06:00:50;;;;;;;31.05;19.98;;;6.00;88.50;;;;;;4956920;28;20049;-82
2024/01/24 06:03:15;;;;;;;31.70;20.08;;;6.00;88.50;;;;;;4970831;28;20031;-83
2024/01/24 06:05:44;;;;;;;27.90;19.45;;;6.00;88.30;;;;;;4956770;28;20027;-82
2024/01/24 06:08:10;;;;;;;27.48;18.40;;;6.00;88.80;;;;;;4955622;28;20071;-82
2024/01/24 06:10:36;;;;;;;29.67;20.10;;;6.00;88.40;;;;;;4957799;28;20456;-80
2024/01/24 06:13:01;;;;;;;28.67;19.63;;;6.00;88.90;;;;;;4963523;28;20496;-80
2024/01/24 06:15:27;;;;;;;26.42;18.50;;;6.00;88.40;;;;;;4966082;28;20078;-84
2024/01/24 06:17:54;;;;;;;26.17;18.63;;;6.00;88.30;;;;;;4964741;28;20113;-84
2024/01/24 06:20:19;;;;;;;27.02;18.80;;;6.00;88.50;;;;;;4956279;28;20425;-83
2024/01/24 06:22:46;;;;;;;27.58;18.65;;;6.00;88.30;;;;;;4968583;28;20106;-80
2024/01/24 06:25:13;;;;;;;28.25;19.05;;;6.00;88.50;;;;;;4969662;28;20504;-79
2024/01/24 06:27:41;;;;;;;25.63;17.30;;;6.00;88.80;;;;;;4959100;28;20024;-80
2024/01/24 06:30:09;;;;;;;22.50;16.75;;;6.00;89.60;;;;;;4959897;28;20543;-80
2024/01/24 06:32:35;;;;;;;27.35;19.52;;;6.10;89.20;;;;;;4965789;28;20023;-79
2024/01/24 06:35:01;;;;;;;28.08;19.45;;;6.10;88.90;;;;;;4959878;28;20034;-78
2024/01/24 06:37:26;;;;;;;27.02;19.95;;;6.00;88.80;;;;;;4967008;28;20023;-79
2024/01/24 06:39:52;;;;;;;31.55;20.40;;;6.00;88.80;;;;;;4974361;28;20023;-83
2024/01/24 06:42:18;;;;;;;29.90;20.80;;;6.00;88.90;;;;;;4973556;28;20038;-83
2024/01/24 06:44:43;;;;;;;35.92;20.88;;;6.00;89.00;;;;;;4959330;28;20034;-84
2024/01/24 06:47:09;;;;;;;31.13;20.80;;;5.90;89.10;;;;;;4964709;28;20067;-83
2024/01/24 06:49:35;;;;;;;35.78;22.73;;;5.90;89.00;;;;;;4956609;29;20035;-83
2024/01/24 06:52:00;;;;;;;34.35;22.38;;;5.90;89.10;;;;;;4968909;28;20129;-83
2024/01/24 06:54:27;;;;;;;33.92;23.73;;;5.80;89.20;;;;;;4965068;28;20038;-83
2024/01/24 06:56:52;;;;;;;35.58;23.40;;;5.80;89.50;;;;;;4956762;29;20027;-83
2024/01/24 06:59:18;;;;;;;35.58;24.20;;;5.80;89.70;;;;;;4965608;28;20073;-83
2024/01/24 07:01:44;;;;;;;31.23;22.65;;;5.80;89.80;;;;;;4965925;28;20031;-84
2024/01/24 07:04:10;;;;;;;38.95;26.15;;;5.90;89.90;;;;;;4967802;28;20490;-84
2024/01/24 07:06:35;;;;;;;41.92;25.60;;;5.80;89.90;;;;;;4961900;28;20059;-83
2024/01/24 07:09:01;;;;;;;38.53;25.73;;;5.80;89.80;;;;;;4965929;28;20037;-83
2024/01/24 07:11:28;;;;;;;35.67;24.02;;;5.90;89.80;;;;;;4972954;28;20042;-83
2024/01/24 07:13:54;;;;;;;36.55;23.75;;;5.90;89.90;;;;;;4967093;28;20015;-82
2024/01/24 07:16:20;;;;;;;38.97;24.83;;;5.90;90.00;;;;;;4976403;28;20042;-84
2024/01/24 07:18:45;;;;;;;34.03;22.77;;;5.90;90.00;;;;;;4967360;28;20015;-83
2024/01/24 07:21:11;;;;;;;34.40;24.52;;;5.90;90.00;;;;;;4972318;28;20401;-83
2024/01/24 07:23:36;;;;;;;34.20;23.67;;;5.90;90.00;;;;;;4969020;28;20031;-84
2024/01/24 07:26:02;;;;;;;36.22;24.45;;;5.90;90.00;;;;;;4960501;28;20039;-85
2024/01/24 07:28:29;;;;;;;33.30;22.60;;;5.90;90.00;;;;;;4972807;28;20105;-83
2024/01/24 07:30:55;;;;;;;34.65;25.13;;;5.90;90.00;;;;;;4979878;28;20034;-84
2024/01/24 07:33:21;;;;;;;43.28;29.38;;;5.90;90.00;;;;;;4973780;28;20050;-83
2024/01/24 07:35:47;;;;;;;34.50;23.63;;;5.80;89.90;;;;;;4968607;28;20034;-83
2024/01/24 07:38:13;;;;;;;39.50;24.15;;;5.70;90.00;;;;;;4978614;28;20091;-84
2024/01/24 07:40:38;;;;;;;31.45;23.48;;;5.70;90.00;;;;;;4979605;28;20042;-83
2024/01/24 07:43:04;;;;;;;47.03;31.55;;;5.70;90.00;;;;;;4969491;28;20469;-84
2024/01/24 07:45:30;;;;;;;37.65;24.98;;;5.70;89.70;;;;;;4959691;29;20019;-84
2024/01/24 07:47:56;;;;;;;34.97;24.10;;;5.70;89.90;;;;;;4959911;29;20035;-84
2024/01/24 07:50:21;;;;;;;37.25;25.40;;;5.70;90.00;;;;;;4960234;28;20446;-84
2024/01/24 07:52:47;;;;;;;48.38;29.20;;;5.70;90.00;;;;;;4960162;29;20369;-84
2024/01/24 07:55:13;;;;;;;40.67;26.77;;;5.80;89.60;;;;;;4960348;29;20039;-84
2024/01/24 07:57:40;;;;;;;36.75;26.27;;;5.80;89.80;;;;;;4959970;29;20023;-84
2024/01/24 08:00:06;;;;;;;44.28;28.42;;;5.80;89.70;;;;;;4959895;29;20094;-83
2024/01/24 08:02:32;;;;;;;41.53;28.65;;;5.80;89.40;;;;;;4959807;28;20038;-84
2024/01/24 08:04:57;;;;;;;32.70;22.25;;;5.70;89.00;;;;;;4942401;29;20035;-84
2024/01/24 08:07:24;;;;;;;30.77;20.15;;;5.70;89.20;;;;;;4959863;29;20051;-84
2024/01/24 08:09:50;;;;;;;36.75;25.27;;;5.60;89.40;;;;;;4960095;29;20039;-85
2024/01/24 08:12:15;;;;;;;43.83;27.33;;;5.70;89.60;;;;;;4945884;28;20045;-83
2024/01/24 08:14:41;;;;;;;37.70;24.35;;;5.70;89.80;;;;;;4967201;28;20063;-84
2024/01/24 08:17:10;;;;;;;39.50;25.75;;;5.80;90.20;;;;;;4952641;28;20027;-85
2024/01/24 08:19:36;;;;;;;38.90;24.33;;;5.80;90.00;;;;;;4967734;28;20043;-84
2024/01/24 08:22:03;;;;;;;35.40;24.83;;;5.90;89.90;;;;;;4957381;28;20058;-84
2024/01/24 08:24:29;;;;;;;34.15;24.60;;;5.90;89.90;;;;;;4965902;28;20042;-84
2024/01/24 08:26:54;;;;;;;40.20;26.10;;;5.90;90.00;;;;;;4960488;28;20789;-85
2024/01/24 08:29:21;;;;;;;37.08;25.17;;;6.00;90.00;;;;;;4960912;28;20062;-80
2024/01/24 08:31:46;;;;;;;36.72;24.77;;;6.00;90.00;;;;;;4965453;28;20079;-80
2024/01/24 08:34:12;;;;;;;33.33;23.55;;;6.10;89.80;;;;;;4968543;28;20061;-79
2024/01/24 08:36:39;;;;;;;32.58;21.35;;;6.20;89.70;;;;;;4944118;28;20046;-79
2024/01/24 08:39:06;;;;;;;29.85;21.00;;;6.20;89.60;;;;;;4970363;28;20496;-79
2024/01/24 08:41:33;;;;;;;33.25;22.17;;;6.20;89.70;;;;;;4974575;28;20063;-80
2024/01/24 08:43:59;;;;;;;31.48;22.42;;;6.30;89.70;;;;;;4973792;28;20026;-80
2024/01/24 08:46:25;;;;;;;32.28;22.10;;;6.30;89.90;;;;;;4957479;28;20034;-80
2024/01/24 08:48:51;;;;;;;40.63;27.60;;;6.40;89.20;;;;;;4975224;28;20035;-79
2024/01/24 08:51:17;;;;;;;31.50;20.88;;;6.50;89.20;;;;;;4975432;28;20156;-79
2024/01/24 08:53:43;;;;;;;28.23;20.73;;;6.60;89.00;;;;;;4976017;28;20401;-80
2024/01/24 08:56:09;;;;;;;26.42;17.90;;;6.70;89.00;;;;;;4976237;28;20073;-79
2024/01/24 08:58:37;;;;;;;27.98;18.67;;;6.80;88.70;;;;;;4975983;28;20018;-80
2024/01/24 09:01:03;;;;;;;23.42;16.17;;;7.10;88.50;;;;;;4974499;28;20057;-80
2024/01/24 09:03:28;;;;;;;19.65;14.93;;;7.30;88.10;;;;;;4972849;28;20070;-80
2024/01/24 09:05:54;;;;;;;22.52;15.50;;;7.50;85.90;;;;;;4956481;29;20035;-80
2024/01/24 09:08:20;;;;;;;20.30;14.88;;;7.60;86.50;;;;;;4957883;28;20455;-79
2024/01/24 09:10:46;;;;;;;21.88;14.73;;;7.70;86.00;;;;;;4951541;28;20123;-80
2024/01/24 09:13:12;;;;;;;23.05;14.90;;;7.80;85.60;;;;;;4971495;28;20119;-80
2024/01/24 09:15:39;;;;;;;24.10;15.65;;;7.90;85.00;;;;;;4951046;29;20035;-80
2024/01/24 09:18:06;;;;;;;19.63;14.18;;;8.00;84.80;;;;;;4970462;28;20019;-80
2024/01/24 09:20:32;;;;;;;18.80;12.95;;;8.10;84.50;;;;;;4974626;28;20061;-81
2024/01/24 09:22:58;;;;;;;17.95;12.60;;;8.20;84.10;;;;;;4975439;28;20054;-81
2024/01/24 09:25:24;;;;;;;17.08;12.10;;;8.30;83.70;;;;;;4946087;28;20039;-80
2024/01/24 09:27:50;;;;;;;16.25;12.25;;;8.40;83.30;;;;;;4961287;28;20078;-79
2024/01/24 09:30:16;;;;;;;19.50;12.73;;;8.50;82.90;;;;;;4956019;29;20038;-81
2024/01/24 09:32:41;;;;;;;15.82;11.30;;;8.60;82.60;;;;;;4959890;28;20034;-80
2024/01/24 09:35:08;;;;;;;17.17;12.07;;;8.60;82.50;;;;;;4953002;28;20038;-81
2024/01/24 09:37:33;;;;;;;14.35;10.88;;;8.80;82.60;;;;;;4958782;28;20023;-81
2024/01/24 09:39:59;;;;;;;14.68;11.02;;;8.90;82.00;;;;;;4955878;29;20101;-80
2024/01/24 09:42:26;;;;;;;20.13;12.13;;;9.00;81.70;;;;;;4956303;28;20077;-82
2024/01/24 09:44:52;;;;;;;13.77;10.30;;;9.20;80.90;;;;;;4957252;29;20045;-83
2024/01/24 09:47:23;;;;;;;13.68;10.43;;;9.20;80.30;;;;;;4963271;28;20031;-82
2024/01/24 09:49:50;;;;;;;12.75;9.85;;;9.30;80.60;;;;;;4962521;28;20067;-84
2024/01/24 09:52:26;;;;;;;15.27;11.05;;;9.40;80.00;;;;;;4966778;28;20525;-83
2024/01/24 09:55:05;;;;;;;15.23;10.90;;;9.40;79.60;;;;;;4962865;28;20033;-83
2024/01/24 09:57:32;;;;;;;14.73;9.85;;;9.50;80.20;;;;;;4970034;28;20061;-82
2024/01/24 09:59:58;;;;;;;13.02;10.40;;;9.50;80.80;;;;;;4975237;28;20027;-84
2024/01/24 10:02:28;;;;;;;11.38;8.57;;;9.60;81.10;;;;;;4966523;28;20134;-82
2024/01/24 10:04:55;;;;;;;12.20;9.25;;;9.80;82.30;;;;;;4972200;28;20061;-82
2024/01/24 10:07:20;;;;;;;10.57;9.05;;;9.90;81.00;;;;;;4973760;28;20512;-82
2024/01/24 10:09:47;;;;;;;15.15;9.25;;;10.10;80.30;;;;;;4972646;28;20071;-81
2024/01/24 10:12:13;;;;;;;11.77;9.30;;;10.30;79.70;;;;;;4968061;28;20038;-80
2024/01/24 10:14:40;;;;;;;14.40;9.95;;;10.30;79.00;;;;;;4955406;28;20031;-83
2024/01/24 10:17:10;;;;;;;11.90;9.95;;;10.40;78.50;;;;;;4956286;28;20120;-81
2024/01/24 10:19:36;;;;;;;12.82;10.20;;;10.40;77.90;;;;;;4958675;28;20083;-81
2024/01/24 10:22:03;;;;;;;12.77;8.32;;;10.40;78.30;;;;;;4961830;28;20054;-81
2024/01/24 10:24:31;;;;;;;11.95;8.32;;;10.40;77.90;;;;;;4961648;28;20069;-80
2024/01/24 10:26:57;;;;;;;12.63;8.27;;;10.40;77.70;;;;;;4956608;28;20027;-80
2024/01/24 10:29:22;;;;;;;12.18;9.20;;;10.40;77.60;;;;;;4963468;28;20042;-80
2024/01/24 10:31:55;;;;;;;12.38;8.73;;;10.50;77.40;;;;;;4962865;28;20066;-81
2024/01/24 10:34:28;;;;;;;12.52;9.50;;;10.60;77.30;;;;;;4968274;28;20121;-81
2024/01/24 10:36:54;;;;;;;13.43;10.48;;;10.50;77.30;;;;;;4967275;28;20038;-81
2024/01/24 10:39:23;;;;;;;12.50;9.48;;;10.50;76.90;;;;;;4966510;28;20409;-81
2024/01/24 10:41:56;;;;;;;13.30;9.82;;;10.40;77.10;;;;;;4962425;28;20022;-81
2024/01/24 10:44:25;;;;;;;12.85;9.48;;;10.40;77.60;;;;;;4962758;28;20038;-81
2024/01/24 10:46:51;;;;;;;12.18;8.88;;;10.40;77.90;;;;;;4969439;28;20033;-81
2024/01/24 10:49:18;;;;;;;11.43;8.13;;;10.40;78.00;;;;;;4958730;28;20038;-81
2024/01/24 10:51:46;;;;;;;9.13;7.82;;;10.40;78.10;;;;;;4958361;28;20035;-82
2024/01/24 10:54:15;;;;;;;12.68;8.85;;;10.50;78.50;;;;;;4945883;28;20039;-82
2024/01/24 10:56:43;;;;;;;14.27;9.38;;;10.50;78.80;;;;;;4957527;28;20031;-83
2024/01/24 10:59:10;;;;;;;13.63;10.02;;;10.60;78.60;;;;;;4970081;28;20078;-82
2024/01/24 11:01:36;;;;;;;14.07;9.07;;;10.60;78.20;;;;;;4971705;28;20026;-82
2024/01/24 11:04:04;;;;;;;12.45;9.23;;;10.60;78.30;;;;;;4942668;28;20478;-82
2024/01/24 11:06:32;;;;;;;10.52;8.00;;;10.60;78.40;;;;;;4964374;28;20043;-82
2024/01/24 11:09:20;;;;;;;11.93;7.93;;;10.60;78.20;;;;;;4963416;28;20032;-82
2024/01/24 11:11:47;;;;;;;12.50;8.85;;;10.40;77.90;;;;;;4963548;28;20024;-82
2024/01/24 11:14:29;;;;;;;11.77;9.07;;;10.40;78.70;;;;;;4972304;28;20039;-82
2024/01/24 11:16:57;;;;;;;10.77;8.35;;;10.40;79.00;;;;;;4946288;29;20370;-82
2024/01/24 11:19:24;;;;;;;11.60;8.82;;;10.50;79.30;;;;;;4959600;29;20030;-82
2024/01/24 11:21:52;;;;;;;12.60;9.65;;;10.50;79.10;;;;;;4968196;28;20078;-82
2024/01/24 11:24:40;;;;;;;14.43;10.90;;;10.50;79.00;;;;;;4943878;29;20039;-82
2024/01/24 11:27:28;;;;;;;17.65;11.25;;;10.50;78.80;;;;;;4969287;28;20038;-82
2024/01/24 11:29:56;;;;;;;16.85;11.85;;;10.50;79.60;;;;;;4959325;28;20400;-82
2024/01/24 11:32:47;;;;;;;15.45;11.82;;;10.60;79.30;;;;;;4969394;28;20031;-82
2024/01/24 11:35:31;;;;;;;14.88;11.35;;;10.60;79.10;;;;;;4965226;28;20046;-82
2024/01/24 11:38:21;;;;;;;16.55;12.73;;;10.70;79.50;;;;;;4954170;29;20382;-81
2024/01/24 11:40:50;;;;;;;18.75;13.48;;;10.80;79.50;;;;;;4932461;29;20405;-82
2024/01/24 11:43:28;;;;;;;21.17;14.97;;;10.90;79.50;;;;;;4968713;28;20038;-80
2024/01/24 11:45:55;;;;;;;18.30;14.07;;;11.10;80.00;;;;;;4959700;28;20412;-81
2024/01/24 11:48:24;;;;;;;33.22;19.73;;;11.30;79.80;;;;;;4976251;28;20065;-82
2024/01/24 11:51:02;;;;;;;17.92;14.77;;;11.50;76.30;;;;;;4966029;28;20111;-83
2024/01/24 11:53:28;;;;;;;20.77;14.88;;;11.80;79.00;;;;;;4971971;28;20393;-82
2024/01/24 11:56:22;;;;;;;27.17;21.00;;;12.50;78.40;;;;;;4968563;28;20027;-82
2024/01/24 11:58:48;;;;;;;22.60;17.80;;;13.80;72.60;;;;;;4972426;28;20369;-82
2024/01/24 12:01:14;;;;;;;25.05;18.08;;;15.10;74.00;;;;;;4970277;28;20046;-82
2024/01/24 12:03:47;;;;;;;23.17;18.50;;;16.20;69.10;;;;;;4971572;28;20433;-82
2024/01/24 12:49:43;;;;;;;25.08;19.92;;;20.60;53.90;;;;;;4777815;28;20118;-78
2024/01/24 12:53:36;;;;;;;26.83;20.88;;;20.20;55.00;;;;;;4978474;28;20110;-78
2024/01/24 12:56:57;;;;;;;21.92;19.63;;;19.70;55.50;;;;;;4922452;23;20032;-79
2024/01/24 12:59:23;;;;;;;24.58;19.98;;;19.50;56.20;;;;;;4935537;29;20052;-79
2024/01/24 13:01:52;;;;;;;22.45;20.15;;;19.40;56.70;;;;;;4957793;29;20065;-78
2024/01/24 13:04:18;;;;;;;23.88;20.85;;;19.30;56.70;;;;;;4964353;29;20046;-78
2024/01/24 13:06:44;;;;;;;22.92;20.23;;;19.30;56.80;;;;;;4953437;29;20049;-77
2024/01/24 13:09:11;;;;;;;23.10;20.65;;;19.50;56.50;;;;;;4940099;29;20063;-77
2024/01/24 13:11:40;;;;;;;23.58;20.90;;;19.80;56.10;;;;;;4948357;29;20116;-77
2024/01/24 13:14:07;;;;;;;22.88;20.40;;;20.00;55.80;;;;;;4936121;29;20068;-77
2024/01/24 13:16:34;;;;;;;22.52;20.02;;;20.20;55.10;;;;;;4927399;29;20493;-77
2024/01/24 13:19:00;;;;;;;24.52;20.55;;;20.30;54.50;;;;;;4955384;29;20031;-78
2024/01/24 13:21:26;;;;;;;23.20;20.48;;;20.30;54.00;;;;;;4955638;29;20035;-78